Volos, Greece
Current Conditions -  °F | °C
As of 2:50 AM on Friday 28 Nov 2014 (Local Time) from LGBL Reporting Station
Overcast Overcast  
Wind Chill: 46°   Ceiling: 2500
Heat Index: 48°   Visibility: 5mi
Dew Point: 46°   Wind: 5mph
Humidity: 93%   Direction: 280°W
Pressure: 30.18"   Gusts: NA
Location:  39.37°N, 22.95°E
Report Text: LGBL 272350Z 28004KT 8000 SCT015 OVC025 09/08 Q1022
Loading
Personal Weather Stations






























Interactive Weather Map New forecast layout! Learn more

10-Day Weather Forecast

Advertisements
Track Severe Weather on mobile